Time;durP1;ratioP1;P1;durP2;ratioP2;P2;SDS_P1;SDS_P2;PMS_P1;PMS_P2;Temp;Humidity;BMP_temperature;BMP_pressure;BME280_temperature;BME280_humidity;BME280_pressure;Samples;Min_cycle;Max_cycle;Signal;HPM_P1;HPM_P2
2022/12/04 00:02:10;;;;;;;63.92;27.10;;;;;;;;;;4945730;28;20042;-64
2022/12/04 00:04:39;;;;;;;58.35;26.92;;;;;;;;;;4928215;28;20035;-64
2022/12/04 00:07:11;;;;;;;58.08;26.88;;;;;;;;;;4942324;28;20042;-64
2022/12/04 00:09:39;;;;;;;61.42;27.40;;;;;;;;;;4938167;28;20108;-64
2022/12/04 00:12:05;;;;;;;61.83;27.35;;;;;;;;;;4942726;28;21032;-64
2022/12/04 00:14:30;;;;;;;60.72;28.40;;;;;;;;;;4935461;28;20035;-63
2022/12/04 00:16:55;;;;;;;63.30;28.63;;;;;;;;;;4942041;28;20039;-64
2022/12/04 00:19:23;;;;;;;61.45;29.73;;;;;;;;;;4928806;28;20035;-63
2022/12/04 00:21:49;;;;;;;59.75;27.38;;;;;;;;;;4930842;28;20057;-64
2022/12/04 00:24:15;;;;;;;58.65;27.85;;;;;;;;;;4950825;28;20517;-65
2022/12/04 00:26:47;;;;;;;63.17;28.33;;;;;;;;;;4934423;28;20054;-63
2022/12/04 00:29:13;;;;;;;67.00;32.15;;;;;;;;;;4945932;28;20030;-63
2022/12/04 00:31:39;;;;;;;63.95;28.63;;;;;;;;;;4944288;28;20106;-64
2022/12/04 00:34:05;;;;;;;63.03;28.60;;;;;;;;;;4925838;28;20168;-64
2022/12/04 00:36:30;;;;;;;60.60;27.90;;;;;;;;;;4933714;28;20065;-64
2022/12/04 00:38:59;;;;;;;63.78;29.33;;;;;;;;;;4945966;28;20756;-64
2022/12/04 00:41:26;;;;;;;61.42;28.13;;;;;;;;;;4944171;28;20063;-64
2022/12/04 00:43:52;;;;;;;62.35;28.85;;;;;;;;;;4944635;28;20042;-64
2022/12/04 00:46:18;;;;;;;63.00;29.30;;;;;;;;;;4943505;28;20047;-64
2022/12/04 00:48:43;;;;;;;61.83;28.50;;;;;;;;;;4912891;28;20492;-64
2022/12/04 00:51:11;;;;;;;61.25;29.60;;;;;;;;;;4934877;28;20118;-64
2022/12/04 00:53:38;;;;;;;59.83;29.85;;;;;;;;;;4961165;28;20047;-64
2022/12/04 00:56:07;;;;;;;59.03;28.75;;;;;;;;;;4942780;28;20034;-64
2022/12/04 00:58:33;;;;;;;64.50;29.58;;;;;;;;;;4945640;28;20043;-64
2022/12/04 01:01:06;;;;;;;63.35;28.90;;;;;;;;;;4946680;28;20058;-64
2022/12/04 01:03:32;;;;;;;61.90;29.10;;;;;;;;;;4941802;28;20042;-64
2022/12/04 01:05:57;;;;;;;65.78;30.70;;;;;;;;;;4954493;28;20414;-64
2022/12/04 01:08:24;;;;;;;60.15;28.45;;;;;;;;;;4945321;28;20074;-64
2022/12/04 01:10:50;;;;;;;65.90;29.85;;;;;;;;;;4945747;28;20778;-63
2022/12/04 01:13:15;;;;;;;61.63;28.53;;;;;;;;;;4927156;28;20038;-64
2022/12/04 01:15:43;;;;;;;62.75;28.88;;;;;;;;;;4950975;28;20034;-64
2022/12/04 01:18:09;;;;;;;67.05;30.45;;;;;;;;;;4958609;28;20141;-64
2022/12/04 01:20:35;;;;;;;63.80;29.80;;;;;;;;;;4943026;28;20039;-63
2022/12/04 01:23:00;;;;;;;65.22;28.88;;;;;;;;;;4944871;28;20127;-64
2022/12/04 01:25:26;;;;;;;62.22;29.50;;;;;;;;;;4944901;28;20035;-64
2022/12/04 01:27:51;;;;;;;63.55;29.67;;;;;;;;;;4935472;28;20212;-64
2022/12/04 01:30:17;;;;;;;64.60;30.02;;;;;;;;;;4944434;28;20838;-64
2022/12/04 01:32:44;;;;;;;65.75;29.52;;;;;;;;;;4943092;28;20035;-64
2022/12/04 01:35:10;;;;;;;66.47;29.60;;;;;;;;;;4945350;28;20035;-63
2022/12/04 01:37:35;;;;;;;63.58;30.00;;;;;;;;;;4933988;28;20031;-63
2022/12/04 01:40:04;;;;;;;68.72;30.70;;;;;;;;;;4925906;28;20110;-64
2022/12/04 01:42:30;;;;;;;72.22;31.83;;;;;;;;;;4945364;28;20053;-64
2022/12/04 01:45:14;;;;;;;67.57;31.13;;;;;;;;;;4943867;28;20039;-64
2022/12/04 01:47:40;;;;;;;64.80;30.85;;;;;;;;;;4944700;28;20046;-64
2022/12/04 01:50:06;;;;;;;69.22;31.38;;;;;;;;;;4944878;28;20704;-64
2022/12/04 01:52:31;;;;;;;69.68;32.08;;;;;;;;;;4943026;28;20038;-64
2022/12/04 01:54:58;;;;;;;71.72;31.52;;;;;;;;;;4942792;28;20047;-63
2022/12/04 01:57:27;;;;;;;65.85;30.70;;;;;;;;;;4944414;28;20043;-63
2022/12/04 01:59:53;;;;;;;70.63;31.83;;;;;;;;;;4946152;28;20046;-64
2022/12/04 02:02:22;;;;;;;67.85;32.17;;;;;;;;;;4945211;28;20038;-64
2022/12/04 02:04:50;;;;;;;66.97;31.65;;;;;;;;;;4937436;28;21067;-63
2022/12/04 02:07:18;;;;;;;68.20;31.73;;;;;;;;;;4900074;28;20647;-64
2022/12/04 02:09:52;;;;;;;72.03;32.63;;;;;;;;;;4940594;28;20034;-64
2022/12/04 02:12:19;;;;;;;69.35;32.50;;;;;;;;;;4942835;28;20126;-63
2022/12/04 02:15:00;;;;;;;75.10;34.13;;;;;;;;;;4941510;28;20038;-64
2022/12/04 02:17:40;;;;;;;68.78;31.08;;;;;;;;;;4942100;28;20158;-64
2022/12/04 02:20:08;;;;;;;67.15;31.73;;;;;;;;;;4942221;28;20053;-63
2022/12/04 02:22:39;;;;;;;72.07;31.55;;;;;;;;;;4941226;28;20043;-64
2022/12/04 02:25:25;;;;;;;72.93;33.30;;;;;;;;;;4930217;28;20049;-64
2022/12/04 02:27:56;;;;;;;63.88;31.15;;;;;;;;;;4921495;28;20129;-64
2022/12/04 02:30:24;;;;;;;67.82;30.88;;;;;;;;;;4955771;28;20133;-63
2022/12/04 02:32:59;;;;;;;69.95;31.98;;;;;;;;;;4930196;28;20123;-64
2022/12/04 02:35:36;;;;;;;67.13;31.05;;;;;;;;;;4947370;28;20049;-63
2022/12/04 02:38:01;;;;;;;69.75;31.92;;;;;;;;;;4960628;28;20039;-64
2022/12/04 02:40:35;;;;;;;68.70;32.25;;;;;;;;;;4948065;28;20126;-64
2022/12/04 02:43:01;;;;;;;68.20;31.77;;;;;;;;;;4947228;28;20039;-64
2022/12/04 02:45:30;;;;;;;64.75;31.08;;;;;;;;;;4949993;28;20049;-64
2022/12/04 02:47:57;;;;;;;64.18;31.40;;;;;;;;;;4954086;28;20042;-63
2022/12/04 02:50:25;;;;;;;62.75;31.02;;;;;;;;;;4948015;28;20035;-63
2022/12/04 02:52:56;;;;;;;63.50;31.52;;;;;;;;;;4952283;28;20278;-64
2022/12/04 02:55:25;;;;;;;64.57;30.90;;;;;;;;;;4952622;28;20061;-63
2022/12/04 02:57:54;;;;;;;65.57;31.25;;;;;;;;;;4953321;28;20030;-64
2022/12/04 03:00:21;;;;;;;66.55;30.92;;;;;;;;;;4952930;28;20123;-64
2022/12/04 03:02:55;;;;;;;65.05;31.73;;;;;;;;;;4943068;28;20110;-64
2022/12/04 03:05:33;;;;;;;65.78;31.80;;;;;;;;;;4951286;28;20039;-63
2022/12/04 03:08:02;;;;;;;67.40;32.45;;;;;;;;;;4935501;28;20037;-63
2022/12/04 03:10:33;;;;;;;64.80;31.35;;;;;;;;;;4952614;28;20038;-63
2022/12/04 03:13:05;;;;;;;65.05;31.23;;;;;;;;;;4952891;28;20593;-64
2022/12/04 03:15:37;;;;;;;65.10;31.63;;;;;;;;;;4943949;28;20037;-63
2022/12/04 03:18:03;;;;;;;;;;;;;;;;;;4953707;28;20023;-64
2022/12/04 03:20:29;;;;;;;66.63;30.15;;;;;;;;;;4952922;28;19914;-64
2022/12/04 03:22:58;;;;;;;62.55;30.92;;;;;;;;;;4949974;28;20027;-64
2022/12/04 03:25:27;;;;;;;64.93;31.25;;;;;;;;;;4952601;28;20113;-65
2022/12/04 03:27:55;;;;;;;65.10;31.33;;;;;;;;;;4952821;28;20030;-64
2022/12/04 03:30:25;;;;;;;66.85;32.08;;;;;;;;;;4952414;28;20704;-64
2022/12/04 03:33:06;;;;;;;69.47;32.83;;;;;;;;;;4951930;28;20526;-63
2022/12/04 03:35:31;;;;;;;65.15;30.75;;;;;;;;;;4951333;28;20022;-64
2022/12/04 03:38:02;;;;;;;66.20;31.20;;;;;;;;;;4965118;28;20034;-64
2022/12/04 03:40:33;;;;;;;67.50;30.83;;;;;;;;;;4948014;28;20136;-64
2022/12/04 03:43:05;;;;;;;64.13;31.35;;;;;;;;;;4950528;28;20057;-64
2022/12/04 03:45:36;;;;;;;69.93;32.60;;;;;;;;;;4948473;28;20703;-64
2022/12/04 03:48:08;;;;;;;65.55;30.88;;;;;;;;;;4950432;28;20756;-63
2022/12/04 03:50:38;;;;;;;66.97;31.33;;;;;;;;;;4951598;28;20031;-64
2022/12/04 03:53:07;;;;;;;65.65;32.45;;;;;;;;;;4950169;28;20762;-64
2022/12/04 03:55:35;;;;;;;69.43;32.28;;;;;;;;;;4940493;28;20875;-64
2022/12/04 03:58:04;;;;;;;61.88;30.65;;;;;;;;;;4970158;28;20026;-63
2022/12/04 04:00:31;;;;;;;70.72;33.08;;;;;;;;;;4948464;28;20549;-64
2022/12/04 04:02:59;;;;;;;67.80;32.03;;;;;;;;;;4951717;28;20056;-64
2022/12/04 04:05:26;;;;;;;66.30;31.98;;;;;;;;;;4924472;28;20031;-64
2022/12/04 04:07:54;;;;;;;71.70;34.03;;;;;;;;;;4949732;28;20327;-64
2022/12/04 04:10:22;;;;;;;71.28;32.92;;;;;;;;;;4953851;28;20089;-64
2022/12/04 04:24:14;;;;;;;70.65;34.17;;;;;;;;;;4950943;28;20054;-64
2022/12/04 04:26:50;;;;;;;70.63;32.83;;;;;;;;;;4950702;28;20054;-64
2022/12/04 04:29:16;;;;;;;70.93;33.90;;;;;;;;;;4951186;28;20111;-64
2022/12/04 04:31:52;;;;;;;67.78;32.03;;;;;;;;;;4941180;28;20162;-64
2022/12/04 04:34:26;;;;;;;71.47;32.67;;;;;;;;;;4950763;28;20954;-64
2022/12/04 04:37:05;;;;;;;68.28;31.60;;;;;;;;;;4949820;28;22479;-64
2022/12/04 04:39:36;;;;;;;69.07;32.90;;;;;;;;;;4950178;28;20125;-64
2022/12/04 04:42:05;;;;;;;69.30;32.67;;;;;;;;;;4950953;28;20614;-64
2022/12/04 04:44:44;;;;;;;71.50;33.92;;;;;;;;;;4948682;28;20039;-64
2022/12/04 04:47:13;;;;;;;67.03;32.53;;;;;;;;;;4940141;28;20450;-64
2022/12/04 04:49:40;;;;;;;69.88;33.80;;;;;;;;;;4941478;28;20022;-64
2022/12/04 04:52:06;;;;;;;71.45;34.70;;;;;;;;;;4940330;28;20111;-64
2022/12/04 04:54:32;;;;;;;68.90;34.22;;;;;;;;;;4940379;28;20972;-64
2022/12/04 04:57:00;;;;;;;77.57;36.47;;;;;;;;;;4939976;28;20036;-64
2022/12/04 04:59:26;;;;;;;74.78;35.13;;;;;;;;;;4940246;28;20050;-64
2022/12/04 05:01:52;;;;;;;73.82;33.83;;;;;;;;;;4954584;28;20062;-64
2022/12/04 05:04:17;;;;;;;78.60;36.50;;;;;;;;;;4945872;28;20118;-64
2022/12/04 05:06:43;;;;;;;68.05;34.53;;;;;;;;;;4945792;28;20669;-64
2022/12/04 05:09:08;;;;;;;72.35;34.95;;;;;;;;;;4938870;28;20085;-64
2022/12/04 05:11:34;;;;;;;71.57;33.97;;;;;;;;;;4942887;28;20696;-64
2022/12/04 05:13:59;;;;;;;72.68;33.78;;;;;;;;;;4933374;28;20132;-64
2022/12/04 05:16:25;;;;;;;74.68;35.60;;;;;;;;;;4940261;28;20038;-64
2022/12/04 05:21:40;;;;;;;75.28;36.28;;;;;;;;;;4942083;28;20045;-63
2022/12/04 05:24:05;;;;;;;70.25;34.42;;;;;;;;;;4940302;28;20035;-65
2022/12/04 05:26:31;;;;;;;75.25;35.70;;;;;;;;;;4940984;28;20089;-63
2022/12/04 05:29:01;;;;;;;75.43;35.22;;;;;;;;;;4939793;28;21033;-63
2022/12/04 05:31:27;;;;;;;75.70;34.85;;;;;;;;;;4953772;28;20457;-65
2022/12/04 05:33:55;;;;;;;74.88;35.17;;;;;;;;;;4950577;28;20078;-64
2022/12/04 05:36:21;;;;;;;75.65;36.05;;;;;;;;;;4953248;28;20031;-65
2022/12/04 05:38:46;;;;;;;71.32;35.15;;;;;;;;;;4943718;28;20091;-64
2022/12/04 05:41:11;;;;;;;75.32;34.95;;;;;;;;;;4941402;28;20066;-64
2022/12/04 05:43:37;;;;;;;75.40;34.97;;;;;;;;;;4938521;28;20051;-64
2022/12/04 05:46:03;;;;;;;67.75;33.28;;;;;;;;;;4937382;28;20046;-64
2022/12/04 05:48:33;;;;;;;70.50;33.58;;;;;;;;;;4937573;28;20034;-64
2022/12/04 05:50:59;;;;;;;75.25;35.03;;;;;;;;;;4936936;28;20042;-64
2022/12/04 05:53:27;;;;;;;73.53;34.83;;;;;;;;;;4938751;28;20034;-65
2022/12/04 05:55:57;;;;;;;72.95;35.70;;;;;;;;;;4944116;28;20041;-64
2022/12/04 05:58:23;;;;;;;71.35;33.08;;;;;;;;;;4946779;28;20150;-65
2022/12/04 06:00:51;;;;;;;72.13;34.42;;;;;;;;;;4931303;28;20065;-64
2022/12/04 06:03:17;;;;;;;76.18;35.83;;;;;;;;;;4937018;28;20097;-65
2022/12/04 06:05:42;;;;;;;70.10;34.13;;;;;;;;;;4937074;28;20042;-64
2022/12/04 06:08:08;;;;;;;71.43;33.95;;;;;;;;;;4946036;28;20046;-64
2022/12/04 06:10:33;;;;;;;71.75;35.13;;;;;;;;;;4940431;28;20035;-64
2022/12/04 06:13:02;;;;;;;72.35;34.30;;;;;;;;;;4959411;28;20086;-65
2022/12/04 06:15:28;;;;;;;72.68;35.17;;;;;;;;;;4937717;28;20035;-64
2022/12/04 06:17:53;;;;;;;69.03;34.17;;;;;;;;;;4939378;28;20565;-64
2022/12/04 06:20:19;;;;;;;73.78;33.60;;;;;;;;;;4935182;28;20165;-64
2022/12/04 06:22:44;;;;;;;73.20;34.92;;;;;;;;;;4953306;28;20027;-65
2022/12/04 06:25:10;;;;;;;71.47;34.03;;;;;;;;;;4936049;28;20035;-64
2022/12/04 06:27:35;;;;;;;71.13;34.42;;;;;;;;;;4956098;28;20101;-64
2022/12/04 06:30:01;;;;;;;69.00;34.15;;;;;;;;;;4930121;28;20034;-64
2022/12/04 06:32:26;;;;;;;68.75;32.88;;;;;;;;;;4940001;28;20122;-64
2022/12/04 06:34:52;;;;;;;71.97;34.90;;;;;;;;;;4945202;28;20052;-64
2022/12/04 06:37:17;;;;;;;70.30;35.00;;;;;;;;;;4940240;28;20888;-64
2022/12/04 06:39:43;;;;;;;73.03;35.03;;;;;;;;;;4942510;28;20034;-64
2022/12/04 06:42:08;;;;;;;74.55;35.33;;;;;;;;;;4923346;28;20061;-64
2022/12/04 06:44:33;;;;;;;76.55;36.58;;;;;;;;;;4948704;28;20062;-64
2022/12/04 06:46:59;;;;;;;76.40;35.45;;;;;;;;;;4945526;28;20039;-65
2022/12/04 06:49:25;;;;;;;73.03;34.75;;;;;;;;;;4939692;28;20114;-64
2022/12/04 06:51:50;;;;;;;77.25;37.75;;;;;;;;;;4955177;28;20617;-65
2022/12/04 06:54:16;;;;;;;72.63;34.72;;;;;;;;;;4939927;28;20055;-65
2022/12/04 06:56:41;;;;;;;80.13;37.72;;;;;;;;;;4938917;28;20164;-65
2022/12/04 06:59:07;;;;;;;76.80;36.88;;;;;;;;;;4940149;28;20762;-65
2022/12/04 07:01:33;;;;;;;71.93;34.55;;;;;;;;;;4914714;28;20046;-63
2022/12/04 07:04:00;;;;;;;72.20;35.08;;;;;;;;;;4945135;28;20031;-65
2022/12/04 07:06:26;;;;;;;78.38;35.92;;;;;;;;;;4933550;28;20093;-64
2022/12/04 07:08:53;;;;;;;73.38;35.42;;;;;;;;;;4938301;28;20042;-65
2022/12/04 07:11:22;;;;;;;73.95;35.60;;;;;;;;;;4949058;28;20743;-66
2022/12/04 07:13:48;;;;;;;72.82;34.78;;;;;;;;;;4938604;28;20468;-65
2022/12/04 07:16:16;;;;;;;73.45;35.08;;;;;;;;;;4940880;28;20062;-63
2022/12/04 07:18:42;;;;;;;74.70;35.40;;;;;;;;;;4940154;28;20037;-65
2022/12/04 07:21:09;;;;;;;73.82;33.78;;;;;;;;;;4943235;28;20034;-65
2022/12/04 07:23:36;;;;;;;77.05;35.92;;;;;;;;;;4938799;28;20078;-66
2022/12/04 07:26:07;;;;;;;78.05;35.72;;;;;;;;;;4938847;28;20035;-64
2022/12/04 07:28:34;;;;;;;76.05;36.08;;;;;;;;;;4929364;28;20683;-64
2022/12/04 07:31:02;;;;;;;78.88;36.60;;;;;;;;;;4937654;28;20037;-64
2022/12/04 07:33:28;;;;;;;81.13;37.55;;;;;;;;;;4938675;28;20105;-64
2022/12/04 07:35:54;;;;;;;77.28;36.08;;;;;;;;;;4939237;28;20550;-64
2022/12/04 07:38:20;;;;;;;79.93;34.83;;;;;;;;;;4943085;28;20030;-64
2022/12/04 07:40:45;;;;;;;73.72;34.88;;;;;;;;;;4932055;28;20063;-65
2022/12/04 07:43:10;;;;;;;81.40;37.25;;;;;;;;;;4940331;28;20125;-63
2022/12/04 07:45:36;;;;;;;81.93;37.28;;;;;;;;;;4932433;28;20043;-64
2022/12/04 07:48:02;;;;;;;81.97;37.85;;;;;;;;;;4937723;28;20590;-64
2022/12/04 07:59:37;;;;;;;71.72;34.75;;;;;;;;;;4969596;23;20040;-63
2022/12/04 08:02:04;;;;;;;65.85;31.95;;;;;;;;;;4979474;28;20045;-64
2022/12/04 08:04:31;;;;;;;70.50;33.10;;;;;;;;;;4997263;28;20654;-63
2022/12/04 08:06:57;;;;;;;65.72;33.30;;;;;;;;;;4981507;28;20147;-64
2022/12/04 08:09:22;;;;;;;70.90;33.38;;;;;;;;;;4994750;28;20273;-64
2022/12/04 08:11:47;;;;;;;67.13;32.10;;;;;;;;;;4980374;28;20144;-64
2022/12/04 08:14:13;;;;;;;70.28;32.15;;;;;;;;;;4982710;28;20048;-62
2022/12/04 08:16:39;;;;;;;66.40;32.40;;;;;;;;;;4999922;28;20815;-63
2022/12/04 08:19:04;;;;;;;68.78;32.95;;;;;;;;;;4979229;28;20041;-63
2022/12/04 08:21:30;;;;;;;72.25;33.33;;;;;;;;;;4977663;28;20037;-61
2022/12/04 08:23:56;;;;;;;69.95;33.63;;;;;;;;;;4978117;28;20060;-62
2022/12/04 08:26:24;;;;;;;74.15;34.63;;;;;;;;;;4999390;28;20392;-62
2022/12/04 08:28:51;;;;;;;71.75;34.13;;;;;;;;;;4997929;28;20040;-63
2022/12/04 08:31:18;;;;;;;71.18;35.72;;;;;;;;;;4996942;28;20041;-63
2022/12/04 08:33:44;;;;;;;72.60;34.78;;;;;;;;;;4993666;28;20040;-61
2022/12/04 08:36:11;;;;;;;72.95;35.40;;;;;;;;;;4995981;28;20044;-63
2022/12/04 08:38:37;;;;;;;68.22;34.60;;;;;;;;;;4999598;28;20899;-63
2022/12/04 08:41:03;;;;;;;69.28;34.10;;;;;;;;;;4999400;28;20051;-63
2022/12/04 08:43:29;;;;;;;72.40;35.30;;;;;;;;;;4995531;28;20037;-63
2022/12/04 08:45:56;;;;;;;76.68;37.08;;;;;;;;;;5001568;28;20044;-63
2022/12/04 08:48:21;;;;;;;72.93;35.53;;;;;;;;;;4995275;28;20056;-63
2022/12/04 08:50:49;;;;;;;74.28;35.38;;;;;;;;;;4983491;28;20044;-63
2022/12/04 08:53:16;;;;;;;71.03;34.45;;;;;;;;;;5001819;28;20037;-62
2022/12/04 08:55:42;;;;;;;76.78;35.53;;;;;;;;;;5002074;28;20044;-63
2022/12/04 08:58:07;;;;;;;75.05;35.13;;;;;;;;;;4977281;28;20040;-63
2022/12/04 09:00:32;;;;;;;67.78;34.83;;;;;;;;;;5006478;28;20159;-63
2022/12/04 09:03:01;;;;;;;72.68;33.97;;;;;;;;;;5001575;28;20279;-63
2022/12/04 09:05:28;;;;;;;73.82;35.33;;;;;;;;;;5022057;28;20691;-63
2022/12/04 09:07:54;;;;;;;72.85;35.72;;;;;;;;;;5021770;28;20117;-63
2022/12/04 09:10:19;;;;;;;70.95;34.75;;;;;;;;;;5019505;28;20044;-63
2022/12/04 09:12:45;;;;;;;74.57;35.20;;;;;;;;;;5019118;28;20592;-63
2022/12/04 09:15:12;;;;;;;75.57;36.22;;;;;;;;;;5019173;28;20619;-63
2022/12/04 09:17:38;;;;;;;79.57;35.55;;;;;;;;;;5001174;28;20041;-63
2022/12/04 09:20:04;;;;;;;75.28;36.20;;;;;;;;;;5020613;28;20082;-63
2022/12/04 09:22:30;;;;;;;75.63;34.72;;;;;;;;;;5019282;28;20075;-63
2022/12/04 09:24:55;;;;;;;72.00;35.28;;;;;;;;;;5021418;28;20045;-63
2022/12/04 09:27:21;;;;;;;74.40;35.42;;;;;;;;;;5018605;28;20068;-63
2022/12/04 09:29:46;;;;;;;74.20;34.85;;;;;;;;;;5018612;28;20032;-63
2022/12/04 09:32:11;;;;;;;70.97;34.40;;;;;;;;;;5020157;28;20036;-62
2022/12/04 09:34:37;;;;;;;70.68;34.53;;;;;;;;;;4983248;28;20105;-63
2022/12/04 09:37:02;;;;;;;72.90;34.88;;;;;;;;;;5021363;28;20052;-63
2022/12/04 09:39:27;;;;;;;74.78;34.08;;;;;;;;;;5018918;28;20037;-62
2022/12/04 09:42:03;;;;;;;69.50;33.80;;;;;;;;;;5001578;28;20044;-62
2022/12/04 09:44:33;;;;;;;68.00;32.97;;;;;;;;;;5015832;28;20119;-61
2022/12/04 09:47:02;;;;;;;68.30;34.00;;;;;;;;;;5016855;28;20040;-62
2022/12/04 09:49:48;;;;;;;75.53;35.85;;;;;;;;;;5017899;28;20366;-61
2022/12/04 09:52:33;;;;;;;76.00;34.92;;;;;;;;;;5016857;28;20040;-63
2022/12/04 09:54:59;;;;;;;71.75;34.63;;;;;;;;;;4985595;28;21072;-63
2022/12/04 09:57:35;;;;;;;77.57;35.80;;;;;;;;;;5017454;28;20260;-64
2022/12/04 10:00:03;;;;;;;72.13;34.13;;;;;;;;;;5015874;28;20043;-62
2022/12/04 10:02:36;;;;;;;69.95;33.10;;;;;;;;;;5004834;28;20201;-61
2022/12/04 10:05:02;;;;;;;72.68;34.20;;;;;;;;;;5023921;28;20041;-63
2022/12/04 10:07:33;;;;;;;73.40;34.83;;;;;;;;;;5024220;28;20048;-62
2022/12/04 10:09:58;;;;;;;70.90;33.33;;;;;;;;;;5023715;28;20052;-63
2022/12/04 10:12:27;;;;;;;68.43;32.38;;;;;;;;;;5020066;28;20047;-62
2022/12/04 10:14:58;;;;;;;67.93;32.05;;;;;;;;;;5020559;28;20799;-62
2022/12/04 10:17:42;;;;;;;63.90;31.40;;;;;;;;;;5024237;28;20040;-63
2022/12/04 10:20:18;;;;;;;63.42;31.10;;;;;;;;;;5022387;28;20275;-65
2022/12/04 10:23:02;;;;;;;65.03;30.75;;;;;;;;;;5020785;28;20161;-63
2022/12/04 10:25:28;;;;;;;65.43;30.08;;;;;;;;;;5022739;28;20041;-63
2022/12/04 10:27:57;;;;;;;63.53;30.98;;;;;;;;;;5004654;28;20676;-61
2022/12/04 10:30:27;;;;;;;58.28;29.77;;;;;;;;;;5022196;28;20041;-63
2022/12/04 10:32:56;;;;;;;58.85;28.60;;;;;;;;;;5019990;28;20045;-63
2022/12/04 10:35:24;;;;;;;57.75;27.98;;;;;;;;;;5023571;28;20044;-63
2022/12/04 10:37:54;;;;;;;57.30;27.85;;;;;;;;;;5024667;28;20044;-61
2022/12/04 10:40:36;;;;;;;60.72;29.42;;;;;;;;;;5022598;28;21194;-62
2022/12/04 10:43:14;;;;;;;58.47;28.65;;;;;;;;;;5005846;28;20867;-62
2022/12/04 10:45:45;;;;;;;60.13;27.60;;;;;;;;;;5019666;28;20040;-62
2022/12/04 10:48:43;;;;;;;56.88;27.77;;;;;;;;;;5019242;28;20718;-62
2022/12/04 10:51:15;;;;;;;52.50;27.95;;;;;;;;;;4995138;28;20032;-62
2022/12/04 10:53:41;;;;;;;56.15;28.20;;;;;;;;;;5019474;28;20029;-62
2022/12/04 10:56:07;;;;;;;54.40;27.50;;;;;;;;;;5020952;28;20040;-62
2022/12/04 10:58:33;;;;;;;53.47;26.52;;;;;;;;;;5021863;28;21171;-62
2022/12/04 11:01:01;;;;;;;52.40;26.60;;;;;;;;;;5022642;28;20033;-62
2022/12/04 11:03:27;;;;;;;52.22;25.00;;;;;;;;;;5022231;28;20757;-62
2022/12/04 11:05:55;;;;;;;50.60;24.95;;;;;;;;;;5020111;28;22731;-62
2022/12/04 11:08:23;;;;;;;51.83;25.67;;;;;;;;;;5020261;28;20876;-62
2022/12/04 11:10:56;;;;;;;49.25;24.75;;;;;;;;;;5021407;28;20036;-61
2022/12/04 11:13:22;;;;;;;51.00;25.27;;;;;;;;;;5020593;28;20041;-63
2022/12/04 11:15:49;;;;;;;45.70;23.88;;;;;;;;;;5001904;28;20879;-63
2022/12/04 11:18:17;;;;;;;41.63;21.85;;;;;;;;;;5021110;28;20043;-63
2022/12/04 11:20:48;;;;;;;33.08;16.45;;;;;;;;;;5020783;28;20037;-63
2022/12/04 11:23:14;;;;;;;30.90;16.33;;;;;;;;;;5019180;28;20536;-63
2022/12/04 11:25:46;;;;;;;32.30;17.67;;;;;;;;;;5020461;28;20895;-63
2022/12/04 11:28:23;;;;;;;32.58;17.60;;;;;;;;;;5020516;28;20040;-63
2022/12/04 11:30:53;;;;;;;33.55;17.02;;;;;;;;;;5000038;28;20036;-64
2022/12/04 11:33:23;;;;;;;31.17;15.85;;;;;;;;;;5001764;28;20070;-64
2022/12/04 11:35:52;;;;;;;34.85;17.05;;;;;;;;;;5016681;28;20467;-61
2022/12/04 11:38:22;;;;;;;28.42;15.35;;;;;;;;;;5000257;28;20040;-63
2022/12/04 11:40:49;;;;;;;30.83;15.07;;;;;;;;;;5019904;28;22516;-64
2022/12/04 11:43:16;;;;;;;33.80;16.92;;;;;;;;;;5018460;28;20098;-63
2022/12/04 11:45:52;;;;;;;31.40;16.42;;;;;;;;;;5020857;28;20812;-63
2022/12/04 11:48:21;;;;;;;32.58;16.27;;;;;;;;;;5002148;28;20059;-62
2022/12/04 11:50:46;;;;;;;37.42;18.48;;;;;;;;;;4981765;28;20138;-62
2022/12/04 11:53:22;;;;;;;35.50;19.00;;;;;;;;;;4987022;28;20434;-62
2022/12/04 11:56:07;;;;;;;38.40;20.05;;;;;;;;;;5013069;28;20036;-62
2022/12/04 11:58:33;;;;;;;46.00;21.45;;;;;;;;;;4991398;28;20039;-62
2022/12/04 12:01:09;;;;;;;42.10;21.50;;;;;;;;;;5017452;28;20047;-63
2022/12/04 12:04:07;;;;;;;36.95;19.27;;;;;;;;;;4997778;28;20105;-61
2022/12/04 12:06:37;;;;;;;42.13;20.10;;;;;;;;;;4968583;28;20151;-64
2022/12/04 12:09:08;;;;;;;37.80;19.60;;;;;;;;;;5018416;28;20123;-63
2022/12/04 12:11:37;;;;;;;42.83;21.08;;;;;;;;;;5019348;28;20724;-61
2022/12/04 12:14:02;;;;;;;38.35;20.30;;;;;;;;;;5016112;28;20129;-62
2022/12/04 12:16:46;;;;;;;46.10;22.65;;;;;;;;;;5015279;28;20296;-61
2022/12/04 12:19:11;;;;;;;42.00;21.17;;;;;;;;;;5019395;28;20594;-62
2022/12/04 12:21:49;;;;;;;41.15;20.90;;;;;;;;;;5017647;28;20147;-63
2022/12/04 12:24:21;;;;;;;44.38;21.60;;;;;;;;;;5014935;28;20506;-63
2022/12/04 12:26:54;;;;;;;43.90;21.10;;;;;;;;;;4981823;28;20359;-63
2022/12/04 12:29:31;;;;;;;42.10;21.92;;;;;;;;;;5013650;28;20039;-63
2022/12/04 12:32:22;;;;;;;43.17;21.65;;;;;;;;;;5016005;28;20455;-63
2022/12/04 12:34:48;;;;;;;41.03;21.95;;;;;;;;;;4991539;28;20107;-63
2022/12/04 12:37:17;;;;;;;43.58;21.70;;;;;;;;;;4995541;28;20037;-61
2022/12/04 12:39:56;;;;;;;43.38;21.40;;;;;;;;;;5016030;28;20025;-61
2022/12/04 12:42:25;;;;;;;40.92;20.33;;;;;;;;;;5015133;28;20036;-62
2022/12/04 12:45:20;;;;;;;44.20;21.30;;;;;;;;;;5017153;28;20351;-62
2022/12/04 12:47:48;;;;;;;41.10;21.25;;;;;;;;;;4996284;28;20121;-62
2022/12/04 12:50:15;;;;;;;38.78;19.80;;;;;;;;;;5014266;28;20036;-62
2022/12/04 12:53:13;;;;;;;41.28;20.33;;;;;;;;;;5015971;28;21351;-65
2022/12/04 12:55:44;;;;;;;39.67;19.83;;;;;;;;;;4960127;28;20037;-62
2022/12/04 12:58:10;;;;;;;39.90;19.87;;;;;;;;;;5010082;28;20170;-62
2022/12/04 13:00:40;;;;;;;41.53;21.13;;;;;;;;;;5014402;28;20396;-62
2022/12/04 13:03:06;;;;;;;44.47;21.52;;;;;;;;;;5011861;28;20047;-61
2022/12/04 13:05:38;;;;;;;45.95;21.95;;;;;;;;;;5013296;28;20044;-64
2022/12/04 13:08:20;;;;;;;45.35;22.77;;;;;;;;;;5016469;28;20200;-63
2022/12/04 13:10:49;;;;;;;42.38;21.23;;;;;;;;;;4996534;28;20256;-63
2022/12/04 13:13:14;;;;;;;43.10;20.83;;;;;;;;;;5005848;28;20036;-63
2022/12/04 13:15:49;;;;;;;45.08;21.73;;;;;;;;;;5015233;28;20647;-63
2022/12/04 13:18:35;;;;;;;45.22;22.00;;;;;;;;;;5013672;28;20558;-62
2022/12/04 13:21:02;;;;;;;45.10;22.23;;;;;;;;;;5003678;28;20028;-62
2022/12/04 13:23:33;;;;;;;48.45;23.55;;;;;;;;;;5014896;28;20343;-61
2022/12/04 13:26:06;;;;;;;45.28;22.52;;;;;;;;;;5012199;28;20036;-61
2022/12/04 13:28:40;;;;;;;40.13;21.00;;;;;;;;;;5014407;28;20029;-62
2022/12/04 13:31:17;;;;;;;43.00;22.52;;;;;;;;;;5013664;28;20033;-63
2022/12/04 13:34:06;;;;;;;41.75;21.10;;;;;;;;;;4993756;28;20029;-63
2022/12/04 13:36:47;;;;;;;43.17;22.75;;;;;;;;;;5013669;28;20036;-62
2022/12/04 13:39:43;;;;;;;39.70;20.35;;;;;;;;;;5012334;28;20153;-62
2022/12/04 13:42:20;;;;;;;42.60;22.20;;;;;;;;;;5015477;28;21833;-62
2022/12/04 13:44:51;;;;;;;41.05;21.63;;;;;;;;;;5014544;28;20037;-62
2022/12/04 13:47:24;;;;;;;42.45;21.75;;;;;;;;;;4996973;28;20209;-62
2022/12/04 13:49:50;;;;;;;39.08;20.42;;;;;;;;;;5015256;28;20517;-62
2022/12/04 13:52:21;;;;;;;43.90;20.85;;;;;;;;;;5014418;28;20032;-60
2022/12/04 13:54:56;;;;;;;43.85;22.40;;;;;;;;;;5012768;28;20493;-64
2022/12/04 13:57:22;;;;;;;42.20;22.35;;;;;;;;;;5012149;28;20627;-62
2022/12/04 13:59:50;;;;;;;44.75;22.80;;;;;;;;;;5017093;28;20032;-62
2022/12/04 14:02:25;;;;;;;49.80;24.38;;;;;;;;;;4996836;28;20360;-62
2022/12/04 14:04:55;;;;;;;45.25;23.95;;;;;;;;;;4993470;28;20149;-62
2022/12/04 14:07:23;;;;;;;47.63;24.92;;;;;;;;;;4995887;28;20063;-61
2022/12/04 14:09:52;;;;;;;48.03;24.65;;;;;;;;;;5014093;28;20705;-63
2022/12/04 14:12:23;;;;;;;52.33;26.63;;;;;;;;;;5015481;28;20237;-61
2022/12/04 14:15:04;;;;;;;52.72;25.58;;;;;;;;;;5015589;28;20289;-62
2022/12/04 14:17:31;;;;;;;52.00;26.85;;;;;;;;;;5009125;28;20032;-62
2022/12/04 14:19:58;;;;;;;58.88;28.80;;;;;;;;;;4997973;28;20033;-62
2022/12/04 14:22:29;;;;;;;58.20;28.27;;;;;;;;;;5017273;28;20043;-62
2022/12/04 14:25:13;;;;;;;58.05;31.08;;;;;;;;;;5017800;28;20831;-62
2022/12/04 14:27:42;;;;;;;64.07;31.00;;;;;;;;;;5015406;28;20050;-63
2022/12/04 14:30:22;;;;;;;66.28;31.83;;;;;;;;;;5018503;28;20033;-62
2022/12/04 14:32:52;;;;;;;62.92;32.75;;;;;;;;;;5017264;28;20828;-62
2022/12/04 14:35:24;;;;;;;65.22;31.70;;;;;;;;;;5017086;28;20816;-62
2022/12/04 14:37:53;;;;;;;65.10;31.70;;;;;;;;;;5017647;28;20070;-62
2022/12/04 14:40:24;;;;;;;65.43;32.65;;;;;;;;;;5017378;28;20828;-61
2022/12/04 14:42:49;;;;;;;65.50;31.08;;;;;;;;;;5017579;28;21137;-63
2022/12/04 14:45:24;;;;;;;65.32;32.22;;;;;;;;;;5016218;28;20028;-63
2022/12/04 14:47:57;;;;;;;64.13;31.63;;;;;;;;;;5016301;28;20037;-63
2022/12/04 14:50:28;;;;;;;63.85;31.67;;;;;;;;;;5022313;28;20036;-65
2022/12/04 14:52:55;;;;;;;67.70;34.72;;;;;;;;;;5000648;28;20924;-65
2022/12/04 14:55:31;;;;;;;66.65;32.67;;;;;;;;;;5021942;28;20032;-64